EDT,Max TemperatureF,Mean TemperatureF,Min TemperatureF,Max Dew PointF,MeanDew PointF,Min DewpointF,Max Humidity, Mean Humidity, Min Humidity, Max Sea Level PressureIn, Mean Sea Level PressureIn, Min Sea Level PressureIn, Max VisibilityMiles, Mean VisibilityMiles, Min VisibilityMiles, Max Wind SpeedMPH, Mean Wind SpeedMPH, Max Gust SpeedMPH,PrecipitationIn, CloudCover, Events, WindDirDegrees
2013-5-1,68,50,33,36,34,31,100,61,28,30.47,30.44,30.38,10,8,1,10,2,16,0.00,0,,92
2013-5-2,75,56,37,45,40,36,97,67,26,30.49,30.43,30.35,10,10,2,18,2,25,0.00,2,,56
2013-5-3,57,48,39,44,40,38,100,76,59,30.52,30.46,30.38,10,10,2,15,6,23,0.00,2,,46
2013-5-4,57,44,32,43,36,32,100,85,45,30.38,30.34,30.31,10,6,0,13,2,22,0.00,1,Fog,62
2013-5-5,61,44,28,43,34,28,100,88,46,30.33,30.31,30.25,10,5,0,12,1,17,0.00,3,Fog,69
2013-5-6,70,52,33,51,43,34,100,84,47,30.30,30.24,30.14,10,6,0,10,1,,0.00,4,Fog,107
2013-5-7,78,58,39,57,48,39,100,79,46,30.18,30.16,30.09,10,7,0,13,2,18,0.00,1,Fog,174
2013-5-8,75,60,48,63,56,48,100,87,55,30.19,30.13,30.04,10,6,0,18,3,25,0.20,6,Fog-Rain,134
2013-5-9,68,62,57,63,60,57,100,96,73,30.03,29.94,29.88,10,6,1,12,2,,0.57,8,Rain-Thunderstorm,42
2013-5-10,80,66,53,59,56,53,100,81,42,29.96,29.92,29.89,10,7,0,12,3,,0.00,4,Fog,237
2013-5-11,73,64,57,64,61,54,100,91,66,29.92,29.79,29.71,10,9,5,16,7,25,0.07,7,Rain,188
2013-5-12,73,62,51,63,53,30,100,77,39,29.82,29.65,29.57,10,8,3,39,12,60,0.04,6,Rain,239
2013-5-13,61,47,34,35,30,25,100,49,28,30.03,29.94,29.84,10,10,10,17,7,22,0.00,2,,273
2013-5-14,61,47,35,35,30,26,96,50,29,30.05,30.02,29.97,10,10,10,14,5,21,0.00,5,,315
2013-5-15,66,47,30,54,42,31,100,73,30,30.06,29.90,29.69,10,10,8,17,5,24,0.02,3,Rain,192
2013-5-16,82,62,42,53,44,33,100,78,18,29.80,29.67,29.64,10,5,0,22,2,34,0.00,0,Fog,269
2013-5-17,70,56,44,46,41,34,96,58,27,30.22,30.02,29.82,10,10,10,13,4,23,0.00,1,,343
2013-5-18,72,56,39,49,42,36,100,79,27,30.30,30.25,30.22,10,6,0,13,1,,0.00,1,Fog,181
2013-5-19,72,58,44,56,51,43,100,82,42,30.35,30.29,30.23,10,9,3,12,4,16,0.08,5,Rain,187
2013-5-20,82,68,55,65,62,56,100,79,51,30.19,30.01,29.91,10,9,3,14,5,17,0.03,4,,252
2013-5-21,84,68,51,68,57,52,100,95,56,30.01,29.94,29.86,10,5,0,16,3,23,0.19,4,Fog-Rain-Thunderstorm,53
2013-5-22,70,60,51,62,56,51,100,95,78,30.04,29.93,29.89,10,8,2,12,5,18,0.04,7,Rain,79
2013-5-23,77,65,55,70,63,55,100,95,74,29.93,29.88,29.82,10,6,1,17,4,31,0.09,8,Rain,194
2013-5-24,70,60,50,68,62,50,100,98,88,29.82,29.74,29.67,10,7,2,12,7,21,0.65,8,Rain,196
2013-5-25,53,48,42,52,48,40,100,97,89,29.80,29.75,29.70,10,5,2,15,8,23,0.26,8,Rain,329
2013-5-26,61,50,39,41,38,35,97,70,39,30.11,29.85,29.73,10,10,10,21,11,31,0.02,6,Rain,288
2013-5-27,73,54,37,45,37,29,100,57,20,30.17,30.11,30.07,10,10,8,15,7,29,0.00,0,,283
2013-5-28,77,56,37,57,43,35,100,77,24,30.23,30.20,30.16,10,7,1,9,1,,0.00,1,,173
2013-5-29,75,66,57,68,63,57,100,95,73,30.19,30.08,29.99,10,7,1,10,5,18,1.15,7,Rain-Thunderstorm,185
2013-5-30,88,75,62,73,67,62,100,78,46,30.09,30.04,30.00,10,9,5,14,7,22,0.00,1,Rain,259
2013-5-31,93,76,60,69,64,60,100,75,37,30.09,30.04,29.94,10,7,0,13,2,21,0.00,1,Fog,232